Time;durP1;ratioP1;P1;durP2;ratioP2;P2;SDS_P1;SDS_P2;PMS_P1;PMS_P2;Temp;Humidity;BMP_temperature;BMP_pressure;BME280_temperature;BME280_humidity;BME280_pressure;Samples;Min_cycle;Max_cycle;Signal;HPM_P1;HPM_P2
2023/03/08 00:00:27;;;;;;;1.65;1.55;;;;;;;;;;5072053;28;20233;-84
2023/03/08 00:02:56;;;;;;;1.15;1.15;;;;;;;;;;5072451;28;20293;-84
2023/03/08 00:05:25;;;;;;;1.50;1.40;;;;;;;;;;5072426;28;20217;-84
2023/03/08 00:07:54;;;;;;;1.58;1.42;;;;;;;;;;5072560;28;20681;-84
2023/03/08 00:10:21;;;;;;;1.52;1.40;;;;;;;;;;5072289;28;20201;-84
2023/03/08 00:12:49;;;;;;;1.00;1.00;;;;;;;;;;5072395;28;20201;-84
2023/03/08 00:15:18;;;;;;;1.50;1.30;;;;;;;;;;5072164;28;20256;-83
2023/03/08 00:17:45;;;;;;;1.42;1.40;;;;;;;;;;5072768;28;20203;-84
2023/03/08 00:20:14;;;;;;;1.88;1.20;;;;;;;;;;5072180;28;20207;-84
2023/03/08 00:22:43;;;;;;;1.20;1.10;;;;;;;;;;5072416;28;20200;-84
2023/03/08 00:25:15;;;;;;;1.00;1.00;;;;;;;;;;5071879;28;20232;-84
2023/03/08 00:27:42;;;;;;;1.35;1.25;;;;;;;;;;5052649;28;20214;-84
2023/03/08 00:30:13;;;;;;;1.67;1.58;;;;;;;;;;5051995;28;20206;-84
2023/03/08 00:32:40;;;;;;;2.33;2.13;;;;;;;;;;5052774;28;20293;-84
2023/03/08 00:35:09;;;;;;;1.67;1.58;;;;;;;;;;5052698;28;20228;-84
2023/03/08 00:37:36;;;;;;;1.77;1.67;;;;;;;;;;5052610;28;20277;-84
2023/03/08 00:40:07;;;;;;;1.40;1.30;;;;;;;;;;5051636;28;20292;-84
2023/03/08 00:42:35;;;;;;;1.25;1.15;;;;;;;;;;5052527;28;20647;-84
2023/03/08 00:45:02;;;;;;;1.05;1.05;;;;;;;;;;5052169;28;20305;-83
2023/03/08 00:47:30;;;;;;;1.60;1.50;;;;;;;;;;5052246;28;20677;-84
2023/03/08 00:49:57;;;;;;;1.83;1.73;;;;;;;;;;5052074;28;20726;-84
2023/03/08 00:52:25;;;;;;;1.48;1.38;;;;;;;;;;5052219;28;20207;-85
2023/03/08 00:54:52;;;;;;;1.73;1.63;;;;;;;;;;5052167;28;20591;-84
2023/03/08 00:57:21;;;;;;;1.95;1.85;;;;;;;;;;5052300;28;20584;-84
2023/03/08 00:59:48;;;;;;;1.98;1.88;;;;;;;;;;5051796;28;20229;-84
2023/03/08 01:02:16;;;;;;;1.58;1.48;;;;;;;;;;5051941;28;20289;-84
2023/03/08 01:04:43;;;;;;;1.70;1.60;;;;;;;;;;5051988;28;20292;-84
2023/03/08 01:07:11;;;;;;;2.72;2.53;;;;;;;;;;5051879;28;20249;-84
2023/03/08 01:09:38;;;;;;;2.55;2.00;;;;;;;;;;5054130;28;20631;-84
2023/03/08 01:12:06;;;;;;;1.95;1.85;;;;;;;;;;5055318;28;20747;-84
2023/03/08 01:14:35;;;;;;;1.95;1.85;;;;;;;;;;5055485;28;20559;-84
2023/03/08 01:17:03;;;;;;;1.80;1.70;;;;;;;;;;5055634;28;20249;-84
2023/03/08 01:19:30;;;;;;;2.10;1.80;;;;;;;;;;5054499;28;20292;-83
2023/03/08 01:21:58;;;;;;;2.53;2.33;;;;;;;;;;5055331;28;20296;-84
2023/03/08 01:24:25;;;;;;;1.95;1.85;;;;;;;;;;5055027;28;20198;-85
2023/03/08 01:26:54;;;;;;;4.18;2.80;;;;;;;;;;5069241;28;20238;-84
2023/03/08 01:29:22;;;;;;;2.20;2.00;;;;;;;;;;5075289;28;20259;-84
2023/03/08 01:31:50;;;;;;;2.00;1.90;;;;;;;;;;5075324;28;20211;-84
2023/03/08 01:34:18;;;;;;;1.95;1.85;;;;;;;;;;5075031;28;20287;-84
2023/03/08 01:36:45;;;;;;;1.95;1.85;;;;;;;;;;5075125;28;20308;-84
2023/03/08 01:39:13;;;;;;;1.75;1.48;;;;;;;;;;5074236;28;20207;-84
2023/03/08 01:41:40;;;;;;;1.35;1.35;;;;;;;;;;5074994;28;20205;-84
2023/03/08 01:44:14;;;;;;;1.60;1.50;;;;;;;;;;5075119;28;20228;-84
2023/03/08 01:46:42;;;;;;;2.25;2.05;;;;;;;;;;5075035;28;20221;-84
2023/03/08 01:49:13;;;;;;;1.50;1.40;;;;;;;;;;5074876;28;20240;-84
2023/03/08 01:51:45;;;;;;;1.60;1.50;;;;;;;;;;5075125;28;20562;-85
2023/03/08 01:54:16;;;;;;;2.10;1.90;;;;;;;;;;5075085;28;20535;-84
2023/03/08 01:56:44;;;;;;;1.90;1.80;;;;;;;;;;5062270;28;20229;-84
2023/03/08 01:59:12;;;;;;;1.60;1.50;;;;;;;;;;5054204;28;20204;-84
2023/03/08 02:01:40;;;;;;;2.08;1.98;;;;;;;;;;5054555;28;20707;-84
2023/03/08 02:04:09;;;;;;;2.20;2.08;;;;;;;;;;5054832;28;20210;-84
2023/03/08 02:06:37;;;;;;;1.63;1.52;;;;;;;;;;5054721;28;20227;-84
2023/03/08 02:09:05;;;;;;;1.20;1.20;;;;;;;;;;5053756;28;20319;-84
2023/03/08 02:11:34;;;;;;;1.77;1.67;;;;;;;;;;5054502;28;20197;-84
2023/03/08 02:14:01;;;;;;;1.88;1.77;;;;;;;;;;5054186;28;20205;-83
2023/03/08 02:16:29;;;;;;;1.75;1.65;;;;;;;;;;5054724;28;20284;-83
2023/03/08 02:18:59;;;;;;;2.33;2.13;;;;;;;;;;5053178;28;20202;-84
2023/03/08 02:21:29;;;;;;;1.40;1.35;;;;;;;;;;5054627;28;20201;-85
2023/03/08 02:24:05;;;;;;;1.63;1.52;;;;;;;;;;5054413;28;20247;-84
2023/03/08 02:26:33;;;;;;;1.48;1.38;;;;;;;;;;5065437;28;20240;-84
2023/03/08 02:29:01;;;;;;;1.85;1.75;;;;;;;;;;5073542;28;20221;-84
2023/03/08 02:31:28;;;;;;;1.75;1.38;;;;;;;;;;5073961;28;20245;-84
2023/03/08 02:33:56;;;;;;;1.40;1.30;;;;;;;;;;5074091;28;20205;-84
2023/03/08 02:36:23;;;;;;;1.55;1.45;;;;;;;;;;5074083;28;20678;-84
2023/03/08 02:38:51;;;;;;;1.38;1.27;;;;;;;;;;5072894;28;20729;-83
2023/03/08 02:41:20;;;;;;;1.45;1.35;;;;;;;;;;5074032;28;20284;-84
2023/03/08 02:43:47;;;;;;;1.10;1.10;;;;;;;;;;5073994;28;20677;-85
2023/03/08 02:46:15;;;;;;;1.15;1.15;;;;;;;;;;5073744;28;20231;-84
2023/03/08 02:48:44;;;;;;;0.93;0.93;;;;;;;;;;5073195;28;20235;-84
2023/03/08 02:51:12;;;;;;;1.23;1.15;;;;;;;;;;5073897;28;20205;-84
2023/03/08 02:53:40;;;;;;;1.63;1.52;;;;;;;;;;5073638;28;20192;-84
2023/03/08 02:56:08;;;;;;;1.42;1.33;;;;;;;;;;5065241;28;20317;-84
2023/03/08 02:58:36;;;;;;;1.80;1.48;;;;;;;;;;5053216;28;20627;-84
2023/03/08 03:01:04;;;;;;;1.40;1.30;;;;;;;;;;5053583;28;20288;-84
2023/03/08 03:03:31;;;;;;;1.45;1.35;;;;;;;;;;5053112;28;20205;-84
2023/03/08 03:05:59;;;;;;;1.80;1.70;;;;;;;;;;5054137;28;20253;-84
2023/03/08 03:08:26;;;;;;;2.22;2.13;;;;;;;;;;5053479;28;20746;-84
2023/03/08 03:10:54;;;;;;;1.70;1.60;;;;;;;;;;5052801;28;20240;-85
2023/03/08 03:13:21;;;;;;;2.47;2.28;;;;;;;;;;5053290;28;20297;-84
2023/03/08 03:15:50;;;;;;;3.15;2.85;;;;;;;;;;5053103;28;20224;-84
2023/03/08 03:18:18;;;;;;;3.22;2.80;;;;;;;;;;5053251;28;20628;-84
2023/03/08 03:20:45;;;;;;;2.85;2.42;;;;;;;;;;5052482;28;20698;-84
2023/03/08 03:23:12;;;;;;;2.72;2.53;;;;;;;;;;5052799;28;20289;-84
2023/03/08 03:25:41;;;;;;;2.00;1.90;;;;;;;;;;5057176;28;20286;-85
2023/03/08 03:28:08;;;;;;;2.45;2.25;;;;;;;;;;5073050;28;20221;-84
2023/03/08 03:30:36;;;;;;;2.53;2.33;;;;;;;;;;5072419;28;20228;-84
2023/03/08 03:33:05;;;;;;;2.88;2.67;;;;;;;;;;5072465;28;20236;-84
2023/03/08 03:35:32;;;;;;;3.20;2.90;;;;;;;;;;5073126;28;20776;-84
2023/03/08 03:37:59;;;;;;;2.95;2.70;;;;;;;;;;5073033;28;20283;-84
2023/03/08 03:40:27;;;;;;;2.75;2.55;;;;;;;;;;5072161;28;20291;-83
2023/03/08 03:42:54;;;;;;;3.08;2.78;;;;;;;;;;5072928;28;20661;-85
2023/03/08 03:45:22;;;;;;;3.22;2.92;;;;;;;;;;5072484;28;20315;-84
2023/03/08 03:47:49;;;;;;;2.90;2.70;;;;;;;;;;5073021;28;20571;-84
2023/03/08 03:50:19;;;;;;;2.63;2.42;;;;;;;;;;5072012;28;20341;-84
2023/03/08 03:52:46;;;;;;;2.60;2.40;;;;;;;;;;5072571;28;20219;-84
2023/03/08 03:55:13;;;;;;;3.05;2.75;;;;;;;;;;5072352;28;20657;-84
2023/03/08 03:57:41;;;;;;;3.13;2.90;;;;;;;;;;5052727;28;20284;-84
2023/03/08 04:00:11;;;;;;;3.75;3.35;;;;;;;;;;5051814;28;20288;-83
2023/03/08 04:02:39;;;;;;;3.58;3.28;;;;;;;;;;5052089;28;20641;-84
2023/03/08 04:05:07;;;;;;;2.60;2.40;;;;;;;;;;5052054;28;20229;-84
2023/03/08 04:07:36;;;;;;;3.35;3.05;;;;;;;;;;5052314;28;20284;-85
2023/03/08 04:10:04;;;;;;;3.85;3.55;;;;;;;;;;5051877;28;20308;-84
2023/03/08 04:12:31;;;;;;;4.25;3.85;;;;;;;;;;5052053;28;20201;-84
2023/03/08 04:14:59;;;;;;;3.42;3.20;;;;;;;;;;5052395;28;20233;-84
2023/03/08 04:17:26;;;;;;;3.05;2.75;;;;;;;;;;5052702;28;20255;-84
2023/03/08 04:19:54;;;;;;;3.15;2.85;;;;;;;;;;5052086;28;20194;-84
2023/03/08 04:22:21;;;;;;;2.80;2.60;;;;;;;;;;5052236;28;20288;-85
2023/03/08 04:24:50;;;;;;;3.13;2.83;;;;;;;;;;5052263;28;20207;-84
2023/03/08 04:27:17;;;;;;;3.15;2.95;;;;;;;;;;5070040;28;20288;-84
2023/03/08 04:29:45;;;;;;;3.05;2.78;;;;;;;;;;5071694;28;20311;-83
2023/03/08 04:32:12;;;;;;;3.05;2.58;;;;;;;;;;5072027;28;20246;-83
2023/03/08 04:34:41;;;;;;;4.22;3.83;;;;;;;;;;5072201;28;20633;-84
2023/03/08 04:37:10;;;;;;;4.57;3.95;;;;;;;;;;5072584;28;20563;-84
2023/03/08 04:39:37;;;;;;;3.53;3.20;;;;;;;;;;5072054;28;20208;-83
2023/03/08 04:42:07;;;;;;;3.33;3.03;;;;;;;;;;5072111;28;20259;-84
2023/03/08 04:44:34;;;;;;;3.35;3.05;;;;;;;;;;5075814;28;20201;-84
2023/03/08 04:47:02;;;;;;;3.28;2.97;;;;;;;;;;5076009;28;20315;-85
2023/03/08 04:49:29;;;;;;;2.88;2.40;;;;;;;;;;5075238;28;20263;-85
2023/03/08 04:51:57;;;;;;;2.50;2.30;;;;;;;;;;5076287;28;20235;-85
2023/03/08 04:54:26;;;;;;;4.50;3.03;;;;;;;;;;5076109;28;20312;-85
2023/03/08 04:56:53;;;;;;;4.30;3.75;;;;;;;;;;5076299;28;20246;-84
2023/03/08 04:59:22;;;;;;;3.67;3.38;;;;;;;;;;5073694;28;20296;-84
2023/03/08 05:01:49;;;;;;;3.20;3.00;;;;;;;;;;5076281;28;20291;-85
2023/03/08 05:04:17;;;;;;;3.78;3.47;;;;;;;;;;5076413;28;20284;-84
2023/03/08 05:06:45;;;;;;;2.72;2.53;;;;;;;;;;5075996;28;20312;-86
2023/03/08 05:09:13;;;;;;;1.90;1.80;;;;;;;;;;5075777;28;20263;-85
2023/03/08 05:11:40;;;;;;;2.42;2.25;;;;;;;;;;5075906;28;20201;-85
2023/03/08 05:14:09;;;;;;;3.22;2.92;;;;;;;;;;5076106;28;20200;-85
2023/03/08 05:16:38;;;;;;;2.72;2.53;;;;;;;;;;5076206;28;20248;-85
2023/03/08 05:19:05;;;;;;;2.55;2.33;;;;;;;;;;5075153;28;20283;-85
2023/03/08 05:21:33;;;;;;;2.47;2.22;;;;;;;;;;5075759;28;20232;-85
2023/03/08 05:24:01;;;;;;;2.17;2.05;;;;;;;;;;5075571;28;20243;-85
2023/03/08 05:26:28;;;;;;;2.17;2.08;;;;;;;;;;5075526;28;20693;-85
2023/03/08 05:28:55;;;;;;;2.17;1.75;;;;;;;;;;5075216;28;20205;-84
2023/03/08 05:31:23;;;;;;;1.90;1.80;;;;;;;;;;5075009;28;20295;-84
2023/03/08 05:33:52;;;;;;;2.65;2.45;;;;;;;;;;5075407;28;20291;-84
2023/03/08 05:36:20;;;;;;;2.47;2.28;;;;;;;;;;5075226;28;20311;-84
2023/03/08 05:38:48;;;;;;;2.28;2.08;;;;;;;;;;5074828;28;20688;-84
2023/03/08 05:41:17;;;;;;;2.60;2.40;;;;;;;;;;5075073;28;20283;-84
2023/03/08 05:43:44;;;;;;;2.55;2.35;;;;;;;;;;5074807;28;20288;-84
2023/03/08 05:46:14;;;;;;;1.98;1.88;;;;;;;;;;5074610;28;20227;-83
2023/03/08 05:48:42;;;;;;;2.50;2.30;;;;;;;;;;5075213;28;20258;-85
2023/03/08 05:51:13;;;;;;;2.10;2.00;;;;;;;;;;5076544;28;20224;-85
2023/03/08 05:53:41;;;;;;;2.70;2.50;;;;;;;;;;5074775;28;20205;-84
2023/03/08 05:56:10;;;;;;;2.55;2.35;;;;;;;;;;5066403;28;20225;-84
2023/03/08 05:58:38;;;;;;;2.13;1.88;;;;;;;;;;5053680;28;20204;-83
2023/03/08 06:01:15;;;;;;;2.25;2.15;;;;;;;;;;5054598;28;20293;-83
2023/03/08 06:03:42;;;;;;;2.35;2.15;;;;;;;;;;5054583;28;20228;-85
2023/03/08 06:06:11;;;;;;;1.98;1.88;;;;;;;;;;5054443;28;20300;-84
2023/03/08 06:08:39;;;;;;;2.70;2.50;;;;;;;;;;5054921;28;20202;-83
2023/03/08 06:11:07;;;;;;;3.92;2.70;;;;;;;;;;5054115;28;20225;-82
2023/03/08 06:13:35;;;;;;;2.75;2.35;;;;;;;;;;5054342;28;20212;-84
2023/03/08 06:16:05;;;;;;;2.50;2.35;;;;;;;;;;5054199;28;20228;-84
2023/03/08 06:18:33;;;;;;;2.40;2.20;;;;;;;;;;5054184;28;20208;-84
2023/03/08 06:21:03;;;;;;;3.25;3.03;;;;;;;;;;5054210;28;20585;-83
2023/03/08 06:23:33;;;;;;;2.72;2.53;;;;;;;;;;5053894;28;20273;-82
2023/03/08 06:26:01;;;;;;;2.97;2.67;;;;;;;;;;5060785;28;20229;-83
2023/03/08 06:28:30;;;;;;;3.22;3.03;;;;;;;;;;5074334;28;20296;-85
2023/03/08 06:30:58;;;;;;;3.88;3.58;;;;;;;;;;5073939;28;20244;-83
2023/03/08 06:33:28;;;;;;;4.45;4.05;;;;;;;;;;5061743;28;20210;-84
2023/03/08 06:35:59;;;;;;;4.93;4.53;;;;;;;;;;5072905;28;20607;-84
2023/03/08 06:38:29;;;;;;;5.93;5.32;;;;;;;;;;5069477;28;20227;-84
2023/03/08 06:40:58;;;;;;;5.35;4.93;;;;;;;;;;5053890;28;20654;-83
2023/03/08 06:43:26;;;;;;;4.45;4.05;;;;;;;;;;5054097;28;20198;-84
2023/03/08 06:45:54;;;;;;;4.65;4.25;;;;;;;;;;5071121;28;20220;-84
2023/03/08 06:48:21;;;;;;;3.63;3.33;;;;;;;;;;5073643;28;20292;-83
2023/03/08 06:50:49;;;;;;;4.05;3.65;;;;;;;;;;5071270;28;20817;-84
2023/03/08 06:53:16;;;;;;;3.88;3.47;;;;;;;;;;5073250;28;20204;-84
2023/03/08 06:55:44;;;;;;;4.45;4.05;;;;;;;;;;5073108;28;20283;-84
2023/03/08 06:58:13;;;;;;;4.40;4.00;;;;;;;;;;5072931;28;20232;-84
2023/03/08 07:00:40;;;;;;;3.97;3.58;;;;;;;;;;5072385;28;20693;-84
2023/03/08 07:03:08;;;;;;;4.53;4.13;;;;;;;;;;5073461;28;20709;-83
2023/03/08 07:05:35;;;;;;;2.90;2.70;;;;;;;;;;5072577;28;20745;-84
2023/03/08 07:08:03;;;;;;;3.60;3.00;;;;;;;;;;5062733;28;20236;-85
2023/03/08 07:10:30;;;;;;;4.25;3.72;;;;;;;;;;5053282;28;20263;-84
2023/03/08 07:12:58;;;;;;;4.20;3.80;;;;;;;;;;5053569;28;20201;-84
2023/03/08 07:15:27;;;;;;;3.78;3.47;;;;;;;;;;5053207;28;20240;-85
2023/03/08 07:17:58;;;;;;;3.53;3.22;;;;;;;;;;5053732;28;20198;-83
2023/03/08 07:20:27;;;;;;;6.45;4.85;;;;;;;;;;5052953;28;20210;-84
2023/03/08 07:22:55;;;;;;;4.65;4.22;;;;;;;;;;5053111;28;20210;-84
2023/03/08 07:25:23;;;;;;;4.30;3.90;;;;;;;;;;5054234;28;20283;-84
2023/03/08 07:27:50;;;;;;;5.25;4.75;;;;;;;;;;5072485;28;20203;-84
2023/03/08 07:30:18;;;;;;;4.53;4.13;;;;;;;;;;5072130;28;20291;-84
2023/03/08 07:32:47;;;;;;;4.15;3.75;;;;;;;;;;5072321;28;20243;-84
2023/03/08 07:35:16;;;;;;;3.78;3.40;;;;;;;;;;5072670;28;20268;-84
2023/03/08 07:37:46;;;;;;;3.85;3.33;;;;;;;;;;5072759;28;20713;-84
2023/03/08 07:40:15;;;;;;;4.00;3.65;;;;;;;;;;5072281;28;20201;-83
2023/03/08 07:42:43;;;;;;;6.05;4.10;;;;;;;;;;5072477;28;20212;-84
2023/03/08 07:45:12;;;;;;;3.85;3.55;;;;;;;;;;5067504;28;20217;-84
2023/03/08 07:47:40;;;;;;;3.38;3.05;;;;;;;;;;5073154;28;20201;-84
2023/03/08 07:50:11;;;;;;;3.80;3.50;;;;;;;;;;5071891;28;20201;-84
2023/03/08 07:52:38;;;;;;;3.58;3.05;;;;;;;;;;5072489;28;20225;-84
2023/03/08 07:55:08;;;;;;;3.97;3.55;;;;;;;;;;5072720;28;20773;-84
2023/03/08 07:57:35;;;;;;;3.75;3.10;;;;;;;;;;5052437;28;20401;-84
2023/03/08 08:00:06;;;;;;;3.38;2.95;;;;;;;;;;5051780;28;20685;-84
2023/03/08 08:02:33;;;;;;;3.50;3.20;;;;;;;;;;5052560;28;20216;-83
2023/03/08 08:05:01;;;;;;;3.28;2.95;;;;;;;;;;5052435;28;20209;-85
2023/03/08 08:07:30;;;;;;;2.33;2.08;;;;;;;;;;5052506;28;20836;-85
2023/03/08 08:09:58;;;;;;;2.45;2.25;;;;;;;;;;5051863;28;20563;-84
2023/03/08 08:12:25;;;;;;;3.40;3.00;;;;;;;;;;5052316;28;20225;-84
2023/03/08 08:14:53;;;;;;;2.70;2.10;;;;;;;;;;5051936;28;20638;-85
2023/03/08 08:17:21;;;;;;;2.55;2.10;;;;;;;;;;5052985;28;20204;-85
2023/03/08 08:19:49;;;;;;;1.90;1.80;;;;;;;;;;5056136;28;20238;-83
2023/03/08 08:22:16;;;;;;;2.00;1.80;;;;;;;;;;5056454;28;20712;-84
2023/03/08 08:24:45;;;;;;;1.73;1.63;;;;;;;;;;5055788;28;20233;-84
2023/03/08 08:27:13;;;;;;;2.05;1.95;;;;;;;;;;5072967;28;20233;-84
2023/03/08 08:29:40;;;;;;;2.05;1.95;;;;;;;;;;5075629;28;20734;-83
2023/03/08 08:32:08;;;;;;;2.30;2.17;;;;;;;;;;5076120;28;20252;-84
2023/03/08 08:34:36;;;;;;;2.30;1.95;;;;;;;;;;5075859;28;20279;-84
2023/03/08 08:37:04;;;;;;;2.40;2.20;;;;;;;;;;5075996;28;20296;-84
2023/03/08 08:39:31;;;;;;;2.05;1.95;;;;;;;;;;5075603;28;20239;-83
2023/03/08 08:42:00;;;;;;;1.52;1.42;;;;;;;;;;5075600;28;20232;-83
2023/03/08 08:44:28;;;;;;;1.95;1.85;;;;;;;;;;5075849;28;20205;-84
2023/03/08 08:46:55;;;;;;;2.20;1.88;;;;;;;;;;5075785;28;20221;-84
2023/03/08 08:49:23;;;;;;;1.50;1.40;;;;;;;;;;5075184;28;20289;-84
2023/03/08 08:51:52;;;;;;;1.92;1.17;;;;;;;;;;5075319;28;20712;-83
2023/03/08 08:54:19;;;;;;;1.60;1.30;;;;;;;;;;5075892;28;20189;-84
2023/03/08 08:56:47;;;;;;;1.45;1.35;;;;;;;;;;5062291;28;20317;-83
2023/03/08 08:59:16;;;;;;;1.35;1.25;;;;;;;;;;5054862;28;20674;-84
2023/03/08 09:01:43;;;;;;;1.40;1.30;;;;;;;;;;5055733;28;20197;-84
2023/03/08 09:04:12;;;;;;;1.25;1.17;;;;;;;;;;5055731;28;20297;-86
2023/03/08 09:06:39;;;;;;;2.08;1.33;;;;;;;;;;5055361;28;20228;-87
2023/03/08 09:09:07;;;;;;;1.65;1.55;;;;;;;;;;5073950;28;20645;-84
2023/03/08 09:11:36;;;;;;;1.60;1.50;;;;;;;;;;5075528;28;20316;-84
2023/03/08 09:14:03;;;;;;;1.73;1.63;;;;;;;;;;5075787;28;20207;-84
2023/03/08 09:16:33;;;;;;;1.92;1.73;;;;;;;;;;5075586;28;20710;-84
2023/03/08 09:19:03;;;;;;;1.67;1.58;;;;;;;;;;5075762;28;20192;-84
2023/03/08 09:21:32;;;;;;;1.73;1.63;;;;;;;;;;5075790;28;20288;-83
2023/03/08 09:24:03;;;;;;;2.28;2.03;;;;;;;;;;5075649;28;20292;-83
2023/03/08 09:26:31;;;;;;;2.45;2.22;;;;;;;;;;5075166;28;20260;-85
2023/03/08 09:29:03;;;;;;;3.00;2.40;;;;;;;;;;5074234;28;20236;-84
2023/03/08 09:31:33;;;;;;;6.88;4.18;;;;;;;;;;5075293;28;20576;-84
2023/03/08 09:34:03;;;;;;;4.22;2.92;;;;;;;;;;5075196;28;20197;-83
2023/03/08 09:36:31;;;;;;;2.55;2.35;;;;;;;;;;5075608;28;20304;-83
2023/03/08 09:38:58;;;;;;;3.38;2.95;;;;;;;;;;5074126;28;20210;-83
2023/03/08 09:41:49;;;;;;;4.15;2.45;;;;;;;;;;5074806;28;20291;-84
2023/03/08 09:44:51;;;;;;;2.40;2.20;;;;;;;;;;5076298;28;20185;-83
2023/03/08 09:47:31;;;;;;;3.97;2.40;;;;;;;;;;5077064;28;20181;-84
2023/03/08 09:50:17;;;;;;;1.95;1.75;;;;;;;;;;5075261;28;20747;-84
2023/03/08 09:52:50;;;;;;;1.80;1.70;;;;;;;;;;5076383;28;20213;-84
2023/03/08 09:55:26;;;;;;;1.75;1.65;;;;;;;;;;5076953;28;20217;-85
2023/03/08 09:57:56;;;;;;;1.77;1.67;;;;;;;;;;5077409;28;20185;-84
2023/03/08 10:00:29;;;;;;;1.85;1.75;;;;;;;;;;5076670;28;20743;-84
2023/03/08 10:03:23;;;;;;;2.38;2.15;;;;;;;;;;5077337;28;20269;-83
2023/03/08 10:05:56;;;;;;;1.55;1.45;;;;;;;;;;5076529;28;20773;-84
2023/03/08 10:08:30;;;;;;;2.50;2.30;;;;;;;;;;5075330;28;20239;-84
2023/03/08 10:11:00;;;;;;;1.45;1.35;;;;;;;;;;5074889;28;20264;-83
2023/03/08 10:13:33;;;;;;;1.80;1.70;;;;;;;;;;5074384;28;20213;-84
2023/03/08 10:16:15;;;;;;;1.50;1.40;;;;;;;;;;5074566;28;20239;-85
2023/03/08 10:18:48;;;;;;;1.55;1.45;;;;;;;;;;5074485;28;20642;-84
2023/03/08 10:21:18;;;;;;;1.77;1.67;;;;;;;;;;5064165;28;20541;-85
2023/03/08 10:23:50;;;;;;;1.95;1.80;;;;;;;;;;5054530;28;20187;-83
2023/03/08 10:26:17;;;;;;;1.70;1.60;;;;;;;;;;5054434;28;20316;-85
2023/03/08 10:28:45;;;;;;;2.30;2.17;;;;;;;;;;5054488;28;20642;-86
2023/03/08 10:31:25;;;;;;;1.65;1.55;;;;;;;;;;5055420;28;20229;-85
2023/03/08 10:34:03;;;;;;;2.03;1.83;;;;;;;;;;5054115;28;20212;-85
2023/03/08 10:36:31;;;;;;;1.80;1.70;;;;;;;;;;5053563;28;20225;-84
2023/03/08 10:39:08;;;;;;;1.95;1.85;;;;;;;;;;5054127;28;20210;-85
2023/03/08 10:41:42;;;;;;;2.38;2.22;;;;;;;;;;5053900;28;20189;-84
2023/03/08 10:44:32;;;;;;;1.52;1.42;;;;;;;;;;5053846;28;20252;-85
2023/03/08 10:47:01;;;;;;;1.38;1.38;;;;;;;;;;5053841;28;20221;-84
2023/03/08 10:49:30;;;;;;;1.70;1.60;;;;;;;;;;5052945;28;20285;-84
2023/03/08 10:51:59;;;;;;;3.22;1.90;;;;;;;;;;5053298;28;20201;-84
2023/03/08 10:54:28;;;;;;;4.43;1.52;;;;;;;;;;5053425;28;20221;-84
2023/03/08 10:56:58;;;;;;;1.40;1.30;;;;;;;;;;5053259;28;20313;-84
2023/03/08 10:59:31;;;;;;;1.95;1.70;;;;;;;;;;5052653;28;20645;-85
2023/03/08 11:02:01;;;;;;;1.50;1.40;;;;;;;;;;5053298;28;20705;-85
2023/03/08 11:04:31;;;;;;;1.65;1.55;;;;;;;;;;5053955;28;20193;-84
2023/03/08 11:06:58;;;;;;;1.65;1.55;;;;;;;;;;5054418;28;20228;-83
2023/03/08 11:09:29;;;;;;;3.40;1.80;;;;;;;;;;5058912;28;20224;-84
2023/03/08 11:11:56;;;;;;;2.00;1.80;;;;;;;;;;5053269;28;20182;-83
2023/03/08 11:14:24;;;;;;;2.10;1.95;;;;;;;;;;5052714;28;20308;-83
2023/03/08 11:17:03;;;;;;;1.85;1.75;;;;;;;;;;5052725;28;20222;-83
2023/03/08 11:19:40;;;;;;;2.20;2.03;;;;;;;;;;5052698;28;20184;-85
2023/03/08 11:22:24;;;;;;;2.30;2.20;;;;;;;;;;5053075;28;20679;-84
2023/03/08 11:25:13;;;;;;;2.03;1.92;;;;;;;;;;5052646;28;20190;-84
2023/03/08 11:28:07;;;;;;;2.50;2.30;;;;;;;;;;5053362;28;20205;-83
2023/03/08 11:30:45;;;;;;;2.88;2.67;;;;;;;;;;5052932;28;20190;-84
2023/03/08 11:33:48;;;;;;;2.17;2.08;;;;;;;;;;5053783;28;20201;-84
2023/03/08 11:36:23;;;;;;;3.03;2.78;;;;;;;;;;5042753;28;20656;-84
2023/03/08 11:38:58;;;;;;;2.60;2.40;;;;;;;;;;5069022;28;20292;-84
2023/03/08 11:41:33;;;;;;;2.88;2.67;;;;;;;;;;5073099;28;20592;-84
2023/03/08 11:44:34;;;;;;;2.70;2.50;;;;;;;;;;5072948;28;20184;-83
2023/03/08 11:47:37;;;;;;;2.75;2.55;;;;;;;;;;5073006;28;20225;-85
2023/03/08 11:50:12;;;;;;;3.00;2.70;;;;;;;;;;5072248;28;20208;-84
2023/03/08 11:52:59;;;;;;;2.88;2.67;;;;;;;;;;5072452;28;20191;-84
2023/03/08 11:55:43;;;;;;;3.00;2.80;;;;;;;;;;5073210;28;20762;-84
2023/03/08 11:58:19;;;;;;;3.65;3.35;;;;;;;;;;5073063;28;20195;-83
2023/03/08 12:00:48;;;;;;;3.67;3.30;;;;;;;;;;5072778;28;20200;-84
2023/03/08 12:03:18;;;;;;;3.72;3.42;;;;;;;;;;5072934;28;20288;-84
2023/03/08 12:05:49;;;;;;;3.60;3.30;;;;;;;;;;5072512;28;20223;-84
2023/03/08 12:08:22;;;;;;;4.10;3.70;;;;;;;;;;5060936;28;20726;-84
2023/03/08 12:10:56;;;;;;;2.50;2.30;;;;;;;;;;5052411;28;20549;-84
2023/03/08 12:13:28;;;;;;;2.60;2.40;;;;;;;;;;5052792;28;20568;-83
2023/03/08 12:16:00;;;;;;;3.13;2.90;;;;;;;;;;5052430;28;20217;-84
2023/03/08 12:18:36;;;;;;;2.20;2.08;;;;;;;;;;5052174;28;20292;-82
2023/03/08 12:21:18;;;;;;;2.17;2.03;;;;;;;;;;5052680;28;20181;-83
2023/03/08 12:23:54;;;;;;;2.03;1.92;;;;;;;;;;5052804;28;20277;-84
2023/03/08 12:26:25;;;;;;;2.97;2.78;;;;;;;;;;5064130;28;20243;-84
2023/03/08 12:28:57;;;;;;;2.85;2.65;;;;;;;;;;5074388;28;20197;-83
2023/03/08 12:31:28;;;;;;;2.72;2.53;;;;;;;;;;5073957;28;20205;-84
2023/03/08 12:33:57;;;;;;;2.78;2.30;;;;;;;;;;5073524;28;20697;-83
2023/03/08 12:36:37;;;;;;;2.40;2.20;;;;;;;;;;5072556;28;20777;-84
2023/03/08 12:39:25;;;;;;;3.10;2.78;;;;;;;;;;5053121;28;20296;-83
2023/03/08 12:42:13;;;;;;;2.65;2.45;;;;;;;;;;5052790;28;20190;-84
2023/03/08 12:44:40;;;;;;;2.25;2.15;;;;;;;;;;5052670;28;20187;-83
2023/03/08 12:47:21;;;;;;;2.80;2.60;;;;;;;;;;5052266;28;20702;-84
2023/03/08 12:49:53;;;;;;;2.72;2.53;;;;;;;;;;5052203;28;20631;-85
2023/03/08 12:52:30;;;;;;;2.75;2.55;;;;;;;;;;5052099;28;20197;-85
2023/03/08 12:55:01;;;;;;;2.67;2.47;;;;;;;;;;5053007;28;20222;-83
2023/03/08 12:57:30;;;;;;;2.35;2.15;;;;;;;;;;5071248;28;20211;-84
2023/03/08 13:00:00;;;;;;;2.58;2.40;;;;;;;;;;5070988;28;20283;-83
2023/03/08 13:02:31;;;;;;;2.05;1.95;;;;;;;;;;5073610;28;20264;-84
2023/03/08 13:05:19;;;;;;;2.50;2.40;;;;;;;;;;5076288;28;20272;-83
2023/03/08 13:08:19;;;;;;;4.88;2.67;;;;;;;;;;5075811;28;20258;-84
2023/03/08 13:11:06;;;;;;;2.10;2.00;;;;;;;;;;5075160;28;20235;-84
2023/03/08 13:13:42;;;;;;;1.80;1.70;;;;;;;;;;5075581;28;20188;-84
2023/03/08 13:16:32;;;;;;;1.50;1.40;;;;;;;;;;5075033;28;20225;-84
2023/03/08 13:19:17;;;;;;;1.80;1.70;;;;;;;;;;5074630;28;20186;-84
2023/03/08 13:21:49;;;;;;;2.65;2.45;;;;;;;;;;5074781;28;20208;-84
2023/03/08 13:24:26;;;;;;;2.40;2.20;;;;;;;;;;5075028;28;20190;-84
2023/03/08 13:27:08;;;;;;;1.85;1.75;;;;;;;;;;5074998;28;20233;-85
2023/03/08 13:29:36;;;;;;;1.80;1.70;;;;;;;;;;5074867;28;20191;-84
2023/03/08 13:32:12;;;;;;;1.20;1.20;;;;;;;;;;5074705;28;20296;-86
2023/03/08 13:34:40;;;;;;;1.88;1.77;;;;;;;;;;5075087;28;20292;-83
2023/03/08 13:37:21;;;;;;;1.98;1.88;;;;;;;;;;5072562;28;20244;-84
2023/03/08 13:39:53;;;;;;;2.20;2.00;;;;;;;;;;5054695;28;20627;-84
2023/03/08 13:42:24;;;;;;;2.13;2.03;;;;;;;;;;5054598;28;20216;-85
2023/03/08 13:44:52;;;;;;;1.90;1.80;;;;;;;;;;5054635;28;20193;-84
2023/03/08 13:47:25;;;;;;;1.70;1.60;;;;;;;;;;5054609;28;20208;-84
2023/03/08 13:49:54;;;;;;;2.10;2.00;;;;;;;;;;5054377;28;20212;-82
2023/03/08 13:52:26;;;;;;;1.95;1.85;;;;;;;;;;5054621;28;20284;-85
2023/03/08 13:54:56;;;;;;;2.10;2.00;;;;;;;;;;5054292;28;20222;-84
2023/03/08 13:57:29;;;;;;;1.73;1.63;;;;;;;;;;5073063;28;20207;-84
2023/03/08 13:59:59;;;;;;;2.10;2.00;;;;;;;;;;5074288;28;20280;-84
2023/03/08 14:02:29;;;;;;;1.83;1.73;;;;;;;;;;5074917;28;20207;-84
2023/03/08 14:04:57;;;;;;;1.65;1.55;;;;;;;;;;5074593;28;20642;-85
2023/03/08 14:07:27;;;;;;;2.28;2.00;;;;;;;;;;5074506;28;20201;-83
2023/03/08 14:09:55;;;;;;;2.90;2.70;;;;;;;;;;5073839;28;20208;-85
2023/03/08 14:12:28;;;;;;;4.55;4.15;;;;;;;;;;5074367;28;20288;-83
2023/03/08 14:14:58;;;;;;;3.38;3.08;;;;;;;;;;5073678;28;20296;-84
2023/03/08 14:17:28;;;;;;;3.03;2.80;;;;;;;;;;5074287;28;20190;-84
2023/03/08 14:19:58;;;;;;;3.25;2.95;;;;;;;;;;5073546;28;20234;-84
2023/03/08 14:22:28;;;;;;;1.95;1.85;;;;;;;;;;5074047;28;20284;-85
2023/03/08 14:24:59;;;;;;;2.35;2.15;;;;;;;;;;5073973;28;20201;-84
2023/03/08 14:27:38;;;;;;;2.35;2.15;;;;;;;;;;5073913;28;20204;-85
2023/03/08 14:30:16;;;;;;;2.15;1.95;;;;;;;;;;5073804;28;20322;-85
2023/03/08 14:32:58;;;;;;;2.95;2.75;;;;;;;;;;5073508;28;20212;-85
2023/03/08 14:35:28;;;;;;;2.03;1.90;;;;;;;;;;5073700;28;20235;-84
2023/03/08 14:37:57;;;;;;;1.77;1.67;;;;;;;;;;5073976;28;20672;-83
2023/03/08 14:40:29;;;;;;;1.48;1.45;;;;;;;;;;5073179;28;20580;-85
2023/03/08 14:43:01;;;;;;;2.25;2.05;;;;;;;;;;5074007;28;20185;-84
2023/03/08 14:45:34;;;;;;;2.40;2.20;;;;;;;;;;5074124;28;20308;-85
2023/03/08 14:48:15;;;;;;;2.05;1.95;;;;;;;;;;5074123;28;20189;-85
2023/03/08 14:50:54;;;;;;;2.15;2.05;;;;;;;;;;5073288;28;20200;-85
2023/03/08 14:53:29;;;;;;;2.50;2.30;;;;;;;;;;5073975;28;20495;-85
2023/03/08 14:55:57;;;;;;;2.78;2.13;;;;;;;;;;5073451;28;20734;-85
2023/03/08 14:58:29;;;;;;;2.17;2.08;;;;;;;;;;5073478;28;20299;-85
2023/03/08 15:01:00;;;;;;;2.35;2.15;;;;;;;;;;5073390;28;20189;-83
2023/03/08 15:03:29;;;;;;;2.53;2.33;;;;;;;;;;5073680;28;20189;-85